Terminal Aerodrome Forecast
Issued by NWS Charleston, WV

Current Version | Previous Version | Graphics & Text | Print | Product List | Glossary On
Versions: 1 2 3 4 5 6 7 8 9 10 11 12 13 14 15 16 17 18 19 20 21 22 23 24
000
FTUS41 KRLX 231733
TAFBKW
TAF
KBKW 231733Z 2318/2418 12011G19KT P6SM SCT010 OVC050
     FM232000 12005KT 5SM SHRA OVC014
     FM240200 13006KT P6SM OVC010
     FM240400 14005KT 5SM BR BKN008
     FM240800 13006KT 5SM BR BKN004
     FM241400 14008KT 6SM BR BKN011=

USA.gov is the U.S. government's official web portal to all federal, state and local government web resources and services.